Estación Meteorológica Peña el Pijo (Robertgarden) [ 07/23/19 13:58:57 CEST ]

Fecha Hora Presion(HPa) Temp (°C) Humedad % Rocio (°C) Viento ( m/s) Direccion Lluvia 1Hora(mm) Lluvia 24H(mm) LLuvia Total(mm)
2019-Mar-03 01:01:39 1015.600 4.7 64 -1.6         183.37
2019-Mar-03 02:01:40 1015.500 4.3 65 -1.8         183.37
2019-Mar-03 03:01:44 1015.200 3.5 67 -2.1         183.37
2019-Mar-03 04:01:41 1014.800 2.8 68 -2.5         183.37
2019-Mar-03 05:01:39 1014.500 2.6 69 -2.5         183.37
2019-Mar-03 06:01:41 1014.500 2.3 70 -2.6         183.37
2019-Mar-03 07:01:54 1014.800 1.9 71 -2.8         183.37
2019-Mar-03 08:01:44 1015.100 2.1 71 -2.6         183.37
2019-Mar-03 09:01:47 1015.500 5.9 72 1.3         183.37
2019-Mar-03 10:01:42 1015.300 13.8 50 3.6         183.37
2019-Mar-03 11:01:51 1014.900 20.1 34 3.6         183.37
2019-Mar-03 12:01:46 1014.700 22.3 26 1.7         183.37
2019-Mar-03 13:01:47 1014.000 22.4 23 0.1 0.4 NNE     183.37
2019-Mar-03 14:01:56 1013.100 23.6 22 0.5         183.37
2019-Mar-03 15:01:42 1012.600 23.8 20 -0.5         183.37
2019-Mar-03 16:01:43 1012.100 23.2 19 -1.9 3.1 NNW     183.37
2019-Mar-03 17:01:59 1011.700 22.1 21 -1.3         183.37
2019-Mar-03 18:01:46 1011.500 20.3 23 -1.7         183.37
2019-Mar-03 19:01:38 1011.500 16.4 27 -2.8         183.37
2019-Mar-03 20:01:53 1012.200 11.4 35 -3.6         183.37
2019-Mar-03 21:01:54 1012.300 8.5 41 -4.1         183.37
2019-Mar-03 22:02:02 1012.300 7.0 45 -4.3         183.37
2019-Mar-03 23:01:58 1012.400 6.8 47 -3.8         183.37

Temperatura Máxima:23°    Temperatura Mínima:
Presión Máxima:1015.600 Hpa    Presión Mínima:1011.500 Hpa


Volver